sensor_id;sensor_type;location;lat;lon;timestamp;temperature;humidity
58469;DHT22;44257;44.804;10.220;2023-05-10T00:00:15;14.60;99.90
58469;DHT22;44257;44.804;10.220;2023-05-10T00:02:42;14.60;99.90
58469;DHT22;44257;44.804;10.220;2023-05-10T00:05:08;14.60;99.90
58469;DHT22;44257;44.804;10.220;2023-05-10T00:07:34;14.60;99.90
58469;DHT22;44257;44.804;10.220;2023-05-10T00:10:00;14.60;99.90
58469;DHT22;44257;44.804;10.220;2023-05-10T00:12:26;14.60;99.90
58469;DHT22;44257;44.804;10.220;2023-05-10T00:14:51;14.50;99.90
58469;DHT22;44257;44.804;10.220;2023-05-10T00:17:17;14.50;99.90
58469;DHT22;44257;44.804;10.220;2023-05-10T00:19:43;14.50;99.90
58469;DHT22;44257;44.804;10.220;2023-05-10T00:22:09;14.50;99.90
58469;DHT22;44257;44.804;10.220;2023-05-10T00:24:35;14.50;99.90
58469;DHT22;44257;44.804;10.220;2023-05-10T00:27:01;14.50;99.90
58469;DHT22;44257;44.804;10.220;2023-05-10T00:29:29;14.50;99.90
58469;DHT22;44257;44.804;10.220;2023-05-10T00:31:55;14.50;99.90
58469;DHT22;44257;44.804;10.220;2023-05-10T00:34:21;14.50;99.90
58469;DHT22;44257;44.804;10.220;2023-05-10T00:36:47;14.50;99.90
58469;DHT22;44257;44.804;10.220;2023-05-10T00:39:13;14.50;99.90
58469;DHT22;44257;44.804;10.220;2023-05-10T00:41:39;14.40;99.90
58469;DHT22;44257;44.804;10.220;2023-05-10T00:44:06;14.40;99.90
58469;DHT22;44257;44.804;10.220;2023-05-10T00:46:32;14.50;99.90
58469;DHT22;44257;44.804;10.220;2023-05-10T00:48:58;14.50;99.90
58469;DHT22;44257;44.804;10.220;2023-05-10T00:51:24;14.50;99.90
58469;DHT22;44257;44.804;10.220;2023-05-10T00:53:51;14.60;99.90
58469;DHT22;44257;44.804;10.220;2023-05-10T00:56:17;14.60;99.90
58469;DHT22;44257;44.804;10.220;2023-05-10T00:58:43;14.60;99.90
58469;DHT22;44257;44.804;10.220;2023-05-10T01:01:09;14.60;99.90
58469;DHT22;44257;44.804;10.220;2023-05-10T01:03:36;14.60;99.90
58469;DHT22;44257;44.804;10.220;2023-05-10T01:06:03;14.60;99.90
58469;DHT22;44257;44.804;10.220;2023-05-10T01:08:29;14.70;99.90
58469;DHT22;44257;44.804;10.220;2023-05-10T01:10:55;14.70;99.90
58469;DHT22;44257;44.804;10.220;2023-05-10T01:13:36;14.70;99.90
58469;DHT22;44257;44.804;10.220;2023-05-10T01:16:03;14.80;99.90
58469;DHT22;44257;44.804;10.220;2023-05-10T01:18:34;14.80;99.90
58469;DHT22;44257;44.804;10.220;2023-05-10T01:29:21;14.70;99.90
58469;DHT22;44257;44.804;10.220;2023-05-10T01:32:50;14.60;99.90
58469;DHT22;44257;44.804;10.220;2023-05-10T01:35:06;14.60;99.90
58469;DHT22;44257;44.804;10.220;2023-05-10T01:38:04;14.60;99.90
58469;DHT22;44257;44.804;10.220;2023-05-10T01:40:42;14.50;99.90
58469;DHT22;44257;44.804;10.220;2023-05-10T01:43:19;14.50;99.90
58469;DHT22;44257;44.804;10.220;2023-05-10T01:48:16;14.50;99.90
58469;DHT22;44257;44.804;10.220;2023-05-10T01:50:43;14.50;99.90
58469;DHT22;44257;44.804;10.220;2023-05-10T01:53:13;14.50;99.90
58469;DHT22;44257;44.804;10.220;2023-05-10T01:55:48;14.50;99.90
58469;DHT22;44257;44.804;10.220;2023-05-10T01:58:26;14.40;99.90
58469;DHT22;44257;44.804;10.220;2023-05-10T02:00:53;14.50;99.90
58469;DHT22;44257;44.804;10.220;2023-05-10T02:03:22;14.50;99.90
58469;DHT22;44257;44.804;10.220;2023-05-10T02:05:49;14.50;99.90
58469;DHT22;44257;44.804;10.220;2023-05-10T02:08:17;14.60;99.90
58469;DHT22;44257;44.804;10.220;2023-05-10T02:10:45;14.60;99.90
58469;DHT22;44257;44.804;10.220;2023-05-10T02:13:13;14.60;99.90
58469;DHT22;44257;44.804;10.220;2023-05-10T02:15:41;14.60;99.90
58469;DHT22;44257;44.804;10.220;2023-05-10T02:18:09;14.70;99.90
58469;DHT22;44257;44.804;10.220;2023-05-10T02:20:37;14.70;99.90
58469;DHT22;44257;44.804;10.220;2023-05-10T02:23:03;14.70;99.90
58469;DHT22;44257;44.804;10.220;2023-05-10T02:25:31;14.70;99.90
58469;DHT22;44257;44.804;10.220;2023-05-10T02:28:00;14.70;99.90
58469;DHT22;44257;44.804;10.220;2023-05-10T02:30:28;14.70;99.90
58469;DHT22;44257;44.804;10.220;2023-05-10T02:32:54;14.70;99.90
58469;DHT22;44257;44.804;10.220;2023-05-10T02:35:24;14.60;99.90
58469;DHT22;44257;44.804;10.220;2023-05-10T02:37:51;14.70;99.90
58469;DHT22;44257;44.804;10.220;2023-05-10T02:40:18;14.60;99.90
58469;DHT22;44257;44.804;10.220;2023-05-10T02:42:47;14.60;99.90
58469;DHT22;44257;44.804;10.220;2023-05-10T02:45:18;14.60;99.90
58469;DHT22;44257;44.804;10.220;2023-05-10T02:47:45;14.60;99.90
58469;DHT22;44257;44.804;10.220;2023-05-10T02:50:11;14.60;99.90
58469;DHT22;44257;44.804;10.220;2023-05-10T02:52:44;14.60;99.90
58469;DHT22;44257;44.804;10.220;2023-05-10T02:55:14;14.60;99.90
58469;DHT22;44257;44.804;10.220;2023-05-10T02:57:51;14.60;99.90
58469;DHT22;44257;44.804;10.220;2023-05-10T03:00:17;14.50;99.90
58469;DHT22;44257;44.804;10.220;2023-05-10T03:02:43;14.50;99.90
58469;DHT22;44257;44.804;10.220;2023-05-10T03:05:09;14.50;99.90
58469;DHT22;44257;44.804;10.220;2023-05-10T03:07:35;14.50;99.90
58469;DHT22;44257;44.804;10.220;2023-05-10T03:10:02;14.50;99.90
58469;DHT22;44257;44.804;10.220;2023-05-10T03:16:04;14.50;99.90
58469;DHT22;44257;44.804;10.220;2023-05-10T03:21:03;14.50;99.90
58469;DHT22;44257;44.804;10.220;2023-05-10T03:23:41;14.40;99.90
58469;DHT22;44257;44.804;10.220;2023-05-10T03:26:08;14.40;99.90
58469;DHT22;44257;44.804;10.220;2023-05-10T03:28:35;14.40;99.90
58469;DHT22;44257;44.804;10.220;2023-05-10T03:31:04;14.40;99.90
58469;DHT22;44257;44.804;10.220;2023-05-10T03:33:32;14.40;99.90
58469;DHT22;44257;44.804;10.220;2023-05-10T03:35:59;14.40;99.90
58469;DHT22;44257;44.804;10.220;2023-05-10T03:38:25;14.30;99.90
58469;DHT22;44257;44.804;10.220;2023-05-10T03:40:51;14.30;99.90
58469;DHT22;44257;44.804;10.220;2023-05-10T03:43:17;14.30;99.90
58469;DHT22;44257;44.804;10.220;2023-05-10T03:45:43;14.20;99.90
58469;DHT22;44257;44.804;10.220;2023-05-10T03:48:08;14.20;99.90
58469;DHT22;44257;44.804;10.220;2023-05-10T03:50:34;14.20;99.90
58469;DHT22;44257;44.804;10.220;2023-05-10T03:53:00;14.20;99.90
58469;DHT22;44257;44.804;10.220;2023-05-10T03:55:27;14.20;99.90
58469;DHT22;44257;44.804;10.220;2023-05-10T03:57:53;14.10;99.90
58469;DHT22;44257;44.804;10.220;2023-05-10T04:00:21;14.10;99.90
58469;DHT22;44257;44.804;10.220;2023-05-10T04:02:50;14.20;99.90
58469;DHT22;44257;44.804;10.220;2023-05-10T04:05:19;14.20;99.90
58469;DHT22;44257;44.804;10.220;2023-05-10T04:07:45;14.20;99.90
58469;DHT22;44257;44.804;10.220;2023-05-10T04:10:12;14.10;99.90
58469;DHT22;44257;44.804;10.220;2023-05-10T04:12:38;14.10;99.90
58469;DHT22;44257;44.804;10.220;2023-05-10T04:15:04;14.10;99.90
58469;DHT22;44257;44.804;10.220;2023-05-10T04:17:30;14.10;99.90
58469;DHT22;44257;44.804;10.220;2023-05-10T04:19:56;14.00;99.90
58469;DHT22;44257;44.804;10.220;2023-05-10T04:22:22;14.00;99.90
58469;DHT22;44257;44.804;10.220;2023-05-10T04:24:48;14.00;99.90
58469;DHT22;44257;44.804;10.220;2023-05-10T04:27:13;13.90;99.90
58469;DHT22;44257;44.804;10.220;2023-05-10T04:29:39;13.90;99.90
58469;DHT22;44257;44.804;10.220;2023-05-10T04:32:05;13.90;99.90
58469;DHT22;44257;44.804;10.220;2023-05-10T04:34:31;13.90;99.90
58469;DHT22;44257;44.804;10.220;2023-05-10T04:36:59;14.00;99.90
58469;DHT22;44257;44.804;10.220;2023-05-10T04:39:25;13.90;99.90
58469;DHT22;44257;44.804;10.220;2023-05-10T04:41:51;13.90;99.90
58469;DHT22;44257;44.804;10.220;2023-05-10T04:44:17;13.90;99.90
58469;DHT22;44257;44.804;10.220;2023-05-10T04:46:42;13.90;99.90
58469;DHT22;44257;44.804;10.220;2023-05-10T04:49:08;13.90;99.90
58469;DHT22;44257;44.804;10.220;2023-05-10T04:51:34;13.80;99.90
58469;DHT22;44257;44.804;10.220;2023-05-10T04:54:00;13.80;99.90
58469;DHT22;44257;44.804;10.220;2023-05-10T04:56:26;13.90;99.90
58469;DHT22;44257;44.804;10.220;2023-05-10T04:58:51;13.80;99.90
58469;DHT22;44257;44.804;10.220;2023-05-10T05:01:17;13.80;99.90
58469;DHT22;44257;44.804;10.220;2023-05-10T05:03:43;13.90;99.90
58469;DHT22;44257;44.804;10.220;2023-05-10T05:06:09;13.90;99.90
58469;DHT22;44257;44.804;10.220;2023-05-10T05:08:34;13.90;99.90
58469;DHT22;44257;44.804;10.220;2023-05-10T05:11:00;13.90;99.90
58469;DHT22;44257;44.804;10.220;2023-05-10T05:13:26;13.90;99.90
58469;DHT22;44257;44.804;10.220;2023-05-10T05:15:52;13.90;99.90
58469;DHT22;44257;44.804;10.220;2023-05-10T05:18:19;13.90;99.90
58469;DHT22;44257;44.804;10.220;2023-05-10T05:20:45;14.00;99.90
58469;DHT22;44257;44.804;10.220;2023-05-10T05:23:11;14.00;99.90
58469;DHT22;44257;44.804;10.220;2023-05-10T05:25:37;14.00;99.90
58469;DHT22;44257;44.804;10.220;2023-05-10T05:28:03;14.00;99.90
58469;DHT22;44257;44.804;10.220;2023-05-10T05:30:29;14.00;99.90
58469;DHT22;44257;44.804;10.220;2023-05-10T05:32:54;14.00;99.90
58469;DHT22;44257;44.804;10.220;2023-05-10T05:35:20;13.90;99.90
58469;DHT22;44257;44.804;10.220;2023-05-10T05:37:46;14.00;99.90
58469;DHT22;44257;44.804;10.220;2023-05-10T05:40:15;14.00;99.90
58469;DHT22;44257;44.804;10.220;2023-05-10T05:42:40;13.90;99.90
58469;DHT22;44257;44.804;10.220;2023-05-10T05:45:07;13.80;99.90
58469;DHT22;44257;44.804;10.220;2023-05-10T05:47:34;13.70;99.90
58469;DHT22;44257;44.804;10.220;2023-05-10T05:50:00;13.60;99.90
58469;DHT22;44257;44.804;10.220;2023-05-10T05:52:25;13.50;99.90
58469;DHT22;44257;44.804;10.220;2023-05-10T05:54:51;13.40;99.90
58469;DHT22;44257;44.804;10.220;2023-05-10T05:57:17;13.40;99.90
58469;DHT22;44257;44.804;10.220;2023-05-10T05:59:43;13.40;99.90
58469;DHT22;44257;44.804;10.220;2023-05-10T06:02:10;13.30;99.90
58469;DHT22;44257;44.804;10.220;2023-05-10T06:04:36;13.30;99.90
58469;DHT22;44257;44.804;10.220;2023-05-10T06:07:01;13.20;99.90
58469;DHT22;44257;44.804;10.220;2023-05-10T06:09:27;13.10;99.90
58469;DHT22;44257;44.804;10.220;2023-05-10T06:11:53;13.00;99.90
58469;DHT22;44257;44.804;10.220;2023-05-10T06:14:22;13.10;99.90
58469;DHT22;44257;44.804;10.220;2023-05-10T06:16:47;13.10;99.90
58469;DHT22;44257;44.804;10.220;2023-05-10T06:19:13;13.10;99.90
58469;DHT22;44257;44.804;10.220;2023-05-10T06:21:39;13.10;99.90
58469;DHT22;44257;44.804;10.220;2023-05-10T06:24:05;13.10;99.90
58469;DHT22;44257;44.804;10.220;2023-05-10T06:26:32;13.00;99.90
58469;DHT22;44257;44.804;10.220;2023-05-10T06:28:59;12.90;99.90
58469;DHT22;44257;44.804;10.220;2023-05-10T06:31:25;12.90;99.90
58469;DHT22;44257;44.804;10.220;2023-05-10T06:33:51;12.90;99.90
58469;DHT22;44257;44.804;10.220;2023-05-10T06:36:17;12.90;99.90
58469;DHT22;44257;44.804;10.220;2023-05-10T06:38:43;12.90;99.90
58469;DHT22;44257;44.804;10.220;2023-05-10T06:41:08;12.90;99.90
58469;DHT22;44257;44.804;10.220;2023-05-10T06:43:34;12.90;99.90
58469;DHT22;44257;44.804;10.220;2023-05-10T06:46:00;12.90;99.90
58469;DHT22;44257;44.804;10.220;2023-05-10T06:48:26;12.90;99.90
58469;DHT22;44257;44.804;10.220;2023-05-10T06:50:51;12.90;99.90
58469;DHT22;44257;44.804;10.220;2023-05-10T06:53:17;12.90;99.90
58469;DHT22;44257;44.804;10.220;2023-05-10T06:55:43;12.90;99.90
58469;DHT22;44257;44.804;10.220;2023-05-10T06:58:09;12.90;99.90
58469;DHT22;44257;44.804;10.220;2023-05-10T07:00:35;12.80;99.90
58469;DHT22;44257;44.804;10.220;2023-05-10T07:03:04;12.80;99.90
58469;DHT22;44257;44.804;10.220;2023-05-10T07:05:30;12.80;99.90
58469;DHT22;44257;44.804;10.220;2023-05-10T07:07:56;12.70;99.90
58469;DHT22;44257;44.804;10.220;2023-05-10T07:10:22;12.70;99.90
58469;DHT22;44257;44.804;10.220;2023-05-10T07:12:47;12.70;99.90
58469;DHT22;44257;44.804;10.220;2023-05-10T07:15:13;12.70;99.90
58469;DHT22;44257;44.804;10.220;2023-05-10T07:17:39;12.60;99.90
58469;DHT22;44257;44.804;10.220;2023-05-10T07:20:05;12.60;99.90
58469;DHT22;44257;44.804;10.220;2023-05-10T07:22:31;12.50;99.90
58469;DHT22;44257;44.804;10.220;2023-05-10T07:24:57;12.40;99.90
58469;DHT22;44257;44.804;10.220;2023-05-10T07:27:23;12.30;99.90
58469;DHT22;44257;44.804;10.220;2023-05-10T07:29:48;12.30;99.90
58469;DHT22;44257;44.804;10.220;2023-05-10T07:32:14;12.30;99.90
58469;DHT22;44257;44.804;10.220;2023-05-10T07:34:40;12.20;99.90
58469;DHT22;44257;44.804;10.220;2023-05-10T07:37:06;12.20;99.90
58469;DHT22;44257;44.804;10.220;2023-05-10T07:39:31;12.20;99.90
58469;DHT22;44257;44.804;10.220;2023-05-10T07:41:57;12.10;99.90
58469;DHT22;44257;44.804;10.220;2023-05-10T07:44:23;12.00;99.90
58469;DHT22;44257;44.804;10.220;2023-05-10T07:46:49;12.00;99.90
58469;DHT22;44257;44.804;10.220;2023-05-10T07:49:16;11.90;99.90
58469;DHT22;44257;44.804;10.220;2023-05-10T07:51:42;11.90;99.90
58469;DHT22;44257;44.804;10.220;2023-05-10T07:54:08;11.80;99.90
58469;DHT22;44257;44.804;10.220;2023-05-10T07:56:34;11.80;99.90
58469;DHT22;44257;44.804;10.220;2023-05-10T07:59:00;11.80;99.90
58469;DHT22;44257;44.804;10.220;2023-05-10T08:01:30;11.90;99.90
58469;DHT22;44257;44.804;10.220;2023-05-10T08:03:56;11.90;99.90
58469;DHT22;44257;44.804;10.220;2023-05-10T08:06:22;11.90;99.90
58469;DHT22;44257;44.804;10.220;2023-05-10T08:08:48;11.80;99.90
58469;DHT22;44257;44.804;10.220;2023-05-10T08:11:19;11.80;99.90
58469;DHT22;44257;44.804;10.220;2023-05-10T08:13:47;11.80;99.90
58469;DHT22;44257;44.804;10.220;2023-05-10T08:16:13;11.80;99.90
58469;DHT22;44257;44.804;10.220;2023-05-10T08:18:39;11.70;99.90
58469;DHT22;44257;44.804;10.220;2023-05-10T08:21:05;11.70;99.90
58469;DHT22;44257;44.804;10.220;2023-05-10T08:23:31;11.70;99.90
58469;DHT22;44257;44.804;10.220;2023-05-10T08:25:57;11.60;99.90
58469;DHT22;44257;44.804;10.220;2023-05-10T08:28:23;11.60;99.90
58469;DHT22;44257;44.804;10.220;2023-05-10T08:30:50;11.60;99.90
58469;DHT22;44257;44.804;10.220;2023-05-10T08:33:17;11.60;99.90
58469;DHT22;44257;44.804;10.220;2023-05-10T08:35:43;11.60;99.90
58469;DHT22;44257;44.804;10.220;2023-05-10T08:38:09;11.50;99.90
58469;DHT22;44257;44.804;10.220;2023-05-10T08:40:34;11.50;99.90
58469;DHT22;44257;44.804;10.220;2023-05-10T08:43:05;11.50;99.90
58469;DHT22;44257;44.804;10.220;2023-05-10T08:45:36;11.50;99.90
58469;DHT22;44257;44.804;10.220;2023-05-10T08:48:05;11.50;99.90
58469;DHT22;44257;44.804;10.220;2023-05-10T08:50:31;11.50;99.90
58469;DHT22;44257;44.804;10.220;2023-05-10T08:52:59;11.50;99.90
58469;DHT22;44257;44.804;10.220;2023-05-10T08:55:27;11.50;99.90
58469;DHT22;44257;44.804;10.220;2023-05-10T08:57:53;11.50;99.90
58469;DHT22;44257;44.804;10.220;2023-05-10T09:00:19;11.50;99.90
58469;DHT22;44257;44.804;10.220;2023-05-10T09:02:48;11.60;99.90
58469;DHT22;44257;44.804;10.220;2023-05-10T09:05:15;11.60;99.90
58469;DHT22;44257;44.804;10.220;2023-05-10T09:07:42;11.60;99.90
58469;DHT22;44257;44.804;10.220;2023-05-10T09:10:09;11.60;99.90
58469;DHT22;44257;44.804;10.220;2023-05-10T09:12:36;11.60;99.90
58469;DHT22;44257;44.804;10.220;2023-05-10T09:15:03;11.70;99.90
58469;DHT22;44257;44.804;10.220;2023-05-10T09:17:30;11.70;99.90
58469;DHT22;44257;44.804;10.220;2023-05-10T09:20:03;11.60;99.90
58469;DHT22;44257;44.804;10.220;2023-05-10T09:22:33;11.70;99.90
58469;DHT22;44257;44.804;10.220;2023-05-10T09:27:39;11.60;99.90
58469;DHT22;44257;44.804;10.220;2023-05-10T09:30:06;11.60;99.90
58469;DHT22;44257;44.804;10.220;2023-05-10T09:32:40;11.60;99.90
58469;DHT22;44257;44.804;10.220;2023-05-10T09:37:33;11.60;99.90
58469;DHT22;44257;44.804;10.220;2023-05-10T09:39:59;11.60;99.90
58469;DHT22;44257;44.804;10.220;2023-05-10T09:42:25;11.70;99.90
58469;DHT22;44257;44.804;10.220;2023-05-10T09:44:51;11.70;99.90
58469;DHT22;44257;44.804;10.220;2023-05-10T09:47:19;11.70;99.90
58469;DHT22;44257;44.804;10.220;2023-05-10T09:49:52;11.80;99.90
58469;DHT22;44257;44.804;10.220;2023-05-10T09:52:18;11.80;99.90
58469;DHT22;44257;44.804;10.220;2023-05-10T09:54:53;11.90;99.90
58469;DHT22;44257;44.804;10.220;2023-05-10T09:57:24;11.90;99.90
58469;DHT22;44257;44.804;10.220;2023-05-10T09:59:50;12.00;99.90
58469;DHT22;44257;44.804;10.220;2023-05-10T10:02:16;11.90;99.90
58469;DHT22;44257;44.804;10.220;2023-05-10T10:04:43;11.90;99.90
58469;DHT22;44257;44.804;10.220;2023-05-10T10:07:09;12.00;99.90
58469;DHT22;44257;44.804;10.220;2023-05-10T10:09:35;12.00;99.90
58469;DHT22;44257;44.804;10.220;2023-05-10T10:12:02;12.00;99.90
58469;DHT22;44257;44.804;10.220;2023-05-10T10:14:28;12.10;99.90
58469;DHT22;44257;44.804;10.220;2023-05-10T10:16:54;12.10;99.90
58469;DHT22;44257;44.804;10.220;2023-05-10T10:19:21;12.10;99.90
58469;DHT22;44257;44.804;10.220;2023-05-10T10:21:50;12.10;99.90
58469;DHT22;44257;44.804;10.220;2023-05-10T10:24:16;12.10;99.90
58469;DHT22;44257;44.804;10.220;2023-05-10T10:26:42;12.10;99.90
58469;DHT22;44257;44.804;10.220;2023-05-10T10:29:39;12.20;99.90
58469;DHT22;44257;44.804;10.220;2023-05-10T10:35:17;12.20;99.90
58469;DHT22;44257;44.804;10.220;2023-05-10T10:37:44;12.30;99.90
58469;DHT22;44257;44.804;10.220;2023-05-10T10:40:40;12.30;99.90
58469;DHT22;44257;44.804;10.220;2023-05-10T10:48:34;12.50;99.90
58469;DHT22;44257;44.804;10.220;2023-05-10T10:51:01;12.70;99.90
58469;DHT22;44257;44.804;10.220;2023-05-10T10:53:28;12.90;99.90
58469;DHT22;44257;44.804;10.220;2023-05-10T10:56:26;13.20;99.90
58469;DHT22;44257;44.804;10.220;2023-05-10T10:58:53;13.40;99.90
58469;DHT22;44257;44.804;10.220;2023-05-10T11:01:33;13.60;99.90
58469;DHT22;44257;44.804;10.220;2023-05-10T11:06:32;13.80;99.90
58469;DHT22;44257;44.804;10.220;2023-05-10T11:09:05;13.80;99.90
58469;DHT22;44257;44.804;10.220;2023-05-10T11:11:32;13.90;99.90
58469;DHT22;44257;44.804;10.220;2023-05-10T11:14:04;13.90;99.90
58469;DHT22;44257;44.804;10.220;2023-05-10T11:16:44;13.90;99.90
58469;DHT22;44257;44.804;10.220;2023-05-10T11:19:11;14.00;99.90
58469;DHT22;44257;44.804;10.220;2023-05-10T11:24:15;14.20;99.90
58469;DHT22;44257;44.804;10.220;2023-05-10T11:26:42;14.30;99.90
58469;DHT22;44257;44.804;10.220;2023-05-10T11:29:07;14.30;99.90
58469;DHT22;44257;44.804;10.220;2023-05-10T11:31:33;14.30;99.90
58469;DHT22;44257;44.804;10.220;2023-05-10T11:34:00;14.40;99.90
58469;DHT22;44257;44.804;10.220;2023-05-10T11:36:33;14.40;99.90
58469;DHT22;44257;44.804;10.220;2023-05-10T11:38:59;14.50;99.90
58469;DHT22;44257;44.804;10.220;2023-05-10T11:41:28;14.50;99.90
58469;DHT22;44257;44.804;10.220;2023-05-10T11:43:55;14.50;99.90
58469;DHT22;44257;44.804;10.220;2023-05-10T11:46:27;14.50;99.90
58469;DHT22;44257;44.804;10.220;2023-05-10T11:48:58;14.50;99.90
58469;DHT22;44257;44.804;10.220;2023-05-10T11:51:27;14.50;99.90
58469;DHT22;44257;44.804;10.220;2023-05-10T11:53:54;14.50;99.90
58469;DHT22;44257;44.804;10.220;2023-05-10T11:56:20;14.50;99.90
58469;DHT22;44257;44.804;10.220;2023-05-10T11:58:55;14.40;99.90
58469;DHT22;44257;44.804;10.220;2023-05-10T12:01:22;14.40;99.90
58469;DHT22;44257;44.804;10.220;2023-05-10T12:03:50;14.40;99.90
58469;DHT22;44257;44.804;10.220;2023-05-10T12:06:20;14.50;99.90
58469;DHT22;44257;44.804;10.220;2023-05-10T12:08:47;14.50;99.90
58469;DHT22;44257;44.804;10.220;2023-05-10T12:11:14;14.50;99.90
58469;DHT22;44257;44.804;10.220;2023-05-10T12:13:44;14.50;99.90
58469;DHT22;44257;44.804;10.220;2023-05-10T12:16:16;14.60;99.90
58469;DHT22;44257;44.804;10.220;2023-05-10T12:18:44;14.60;99.90
58469;DHT22;44257;44.804;10.220;2023-05-10T12:21:11;14.70;99.90
58469;DHT22;44257;44.804;10.220;2023-05-10T12:23:38;14.60;99.90
58469;DHT22;44257;44.804;10.220;2023-05-10T12:26:04;14.50;99.90
58469;DHT22;44257;44.804;10.220;2023-05-10T12:28:31;14.50;99.90
58469;DHT22;44257;44.804;10.220;2023-05-10T12:30:58;14.50;99.90
58469;DHT22;44257;44.804;10.220;2023-05-10T12:33:25;14.40;99.90
58469;DHT22;44257;44.804;10.220;2023-05-10T12:35:53;14.40;99.90
58469;DHT22;44257;44.804;10.220;2023-05-10T12:38:26;14.50;99.90
58469;DHT22;44257;44.804;10.220;2023-05-10T12:40:52;14.60;99.90
58469;DHT22;44257;44.804;10.220;2023-05-10T12:43:18;14.60;99.90
58469;DHT22;44257;44.804;10.220;2023-05-10T12:45:43;14.60;99.90
58469;DHT22;44257;44.804;10.220;2023-05-10T12:48:13;14.70;99.90
58469;DHT22;44257;44.804;10.220;2023-05-10T12:50:39;14.70;99.90
58469;DHT22;44257;44.804;10.220;2023-05-10T12:53:05;14.80;99.90
58469;DHT22;44257;44.804;10.220;2023-05-10T12:55:31;14.80;99.90
58469;DHT22;44257;44.804;10.220;2023-05-10T12:57:56;14.80;99.90
58469;DHT22;44257;44.804;10.220;2023-05-10T13:00:22;14.90;99.90
58469;DHT22;44257;44.804;10.220;2023-05-10T13:02:48;15.10;99.90
58469;DHT22;44257;44.804;10.220;2023-05-10T13:05:14;15.40;99.90
58469;DHT22;44257;44.804;10.220;2023-05-10T13:07:40;15.70;99.90
58469;DHT22;44257;44.804;10.220;2023-05-10T13:10:06;16.00;99.90
58469;DHT22;44257;44.804;10.220;2023-05-10T13:12:32;16.10;99.90
58469;DHT22;44257;44.804;10.220;2023-05-10T13:14:58;16.20;99.90
58469;DHT22;44257;44.804;10.220;2023-05-10T13:17:25;16.10;99.90
58469;DHT22;44257;44.804;10.220;2023-05-10T13:19:51;16.00;99.90
58469;DHT22;44257;44.804;10.220;2023-05-10T13:22:17;15.80;99.90
58469;DHT22;44257;44.804;10.220;2023-05-10T13:24:43;15.80;99.90
58469;DHT22;44257;44.804;10.220;2023-05-10T13:27:08;15.80;99.90
58469;DHT22;44257;44.804;10.220;2023-05-10T13:29:34;15.80;99.90
58469;DHT22;44257;44.804;10.220;2023-05-10T13:32:00;15.90;99.90
58469;DHT22;44257;44.804;10.220;2023-05-10T13:34:26;16.00;99.90
58469;DHT22;44257;44.804;10.220;2023-05-10T13:36:53;16.00;99.90
58469;DHT22;44257;44.804;10.220;2023-05-10T13:39:20;15.80;99.90
58469;DHT22;44257;44.804;10.220;2023-05-10T13:41:46;15.80;99.90
58469;DHT22;44257;44.804;10.220;2023-05-10T13:44:13;15.80;99.90
58469;DHT22;44257;44.804;10.220;2023-05-10T13:46:42;15.70;99.90
58469;DHT22;44257;44.804;10.220;2023-05-10T13:49:09;15.70;99.90
58469;DHT22;44257;44.804;10.220;2023-05-10T13:51:35;15.70;99.90
58469;DHT22;44257;44.804;10.220;2023-05-10T13:54:02;15.60;99.90
58469;DHT22;44257;44.804;10.220;2023-05-10T13:56:28;15.60;99.90
58469;DHT22;44257;44.804;10.220;2023-05-10T13:58:53;15.50;99.90
58469;DHT22;44257;44.804;10.220;2023-05-10T14:01:19;15.50;99.90
58469;DHT22;44257;44.804;10.220;2023-05-10T14:03:45;15.40;99.90
58469;DHT22;44257;44.804;10.220;2023-05-10T14:06:11;15.50;99.90
58469;DHT22;44257;44.804;10.220;2023-05-10T14:08:37;15.40;99.90
58469;DHT22;44257;44.804;10.220;2023-05-10T14:11:03;15.30;99.90
58469;DHT22;44257;44.804;10.220;2023-05-10T14:13:29;15.20;99.90
58469;DHT22;44257;44.804;10.220;2023-05-10T14:15:54;15.40;99.90
58469;DHT22;44257;44.804;10.220;2023-05-10T14:18:21;15.50;99.90
58469;DHT22;44257;44.804;10.220;2023-05-10T14:20:48;15.60;99.90
58469;DHT22;44257;44.804;10.220;2023-05-10T14:23:14;15.80;99.90
58469;DHT22;44257;44.804;10.220;2023-05-10T14:25:40;15.90;99.90
58469;DHT22;44257;44.804;10.220;2023-05-10T14:28:06;16.10;99.90
58469;DHT22;44257;44.804;10.220;2023-05-10T14:30:32;16.30;99.90
58469;DHT22;44257;44.804;10.220;2023-05-10T14:33:01;16.50;99.90
58469;DHT22;44257;44.804;10.220;2023-05-10T14:35:28;16.60;99.90
58469;DHT22;44257;44.804;10.220;2023-05-10T14:37:56;16.70;99.90
58469;DHT22;44257;44.804;10.220;2023-05-10T14:40:23;16.80;99.90
58469;DHT22;44257;44.804;10.220;2023-05-10T14:42:50;16.80;99.90
58469;DHT22;44257;44.804;10.220;2023-05-10T14:45:16;16.80;99.90
58469;DHT22;44257;44.804;10.220;2023-05-10T14:47:42;16.90;99.90
58469;DHT22;44257;44.804;10.220;2023-05-10T14:50:08;17.10;99.90
58469;DHT22;44257;44.804;10.220;2023-05-10T14:52:33;17.30;99.90
58469;DHT22;44257;44.804;10.220;2023-05-10T14:54:59;17.40;99.90
58469;DHT22;44257;44.804;10.220;2023-05-10T14:57:26;17.50;99.90
58469;DHT22;44257;44.804;10.220;2023-05-10T14:59:55;17.30;99.90
58469;DHT22;44257;44.804;10.220;2023-05-10T15:02:21;17.00;99.90
58469;DHT22;44257;44.804;10.220;2023-05-10T15:04:47;16.80;99.90
58469;DHT22;44257;44.804;10.220;2023-05-10T15:07:13;16.60;99.90
58469;DHT22;44257;44.804;10.220;2023-05-10T15:09:41;16.20;99.90
58469;DHT22;44257;44.804;10.220;2023-05-10T15:12:07;15.90;99.90
58469;DHT22;44257;44.804;10.220;2023-05-10T15:14:33;15.60;99.90
58469;DHT22;44257;44.804;10.220;2023-05-10T15:17:01;15.50;99.90
58469;DHT22;44257;44.804;10.220;2023-05-10T15:19:26;15.60;99.90
58469;DHT22;44257;44.804;10.220;2023-05-10T15:21:52;15.70;99.90
58469;DHT22;44257;44.804;10.220;2023-05-10T15:24:18;15.80;99.90
58469;DHT22;44257;44.804;10.220;2023-05-10T15:26:44;15.80;99.90
58469;DHT22;44257;44.804;10.220;2023-05-10T15:29:10;15.80;99.90
58469;DHT22;44257;44.804;10.220;2023-05-10T15:31:36;15.70;99.90
58469;DHT22;44257;44.804;10.220;2023-05-10T15:34:02;15.60;99.90
58469;DHT22;44257;44.804;10.220;2023-05-10T15:36:27;15.70;99.90
58469;DHT22;44257;44.804;10.220;2023-05-10T15:38:54;15.70;99.90
58469;DHT22;44257;44.804;10.220;2023-05-10T15:41:20;15.60;99.90
58469;DHT22;44257;44.804;10.220;2023-05-10T15:43:46;15.50;99.90
58469;DHT22;44257;44.804;10.220;2023-05-10T15:46:12;15.40;99.90
58469;DHT22;44257;44.804;10.220;2023-05-10T15:48:37;15.30;99.90
58469;DHT22;44257;44.804;10.220;2023-05-10T15:51:04;15.20;99.90